createdAt,value
2023-03-06T00:02:14.466Z,19.27
2023-03-06T00:08:16.795Z,20.77
2023-03-06T00:14:19.025Z,23.08
2023-03-06T00:20:21.811Z,16.33
2023-03-06T00:26:23.933Z,18.55
2023-03-06T00:32:27.181Z,13.75
2023-03-06T00:38:33.686Z,19.55
2023-03-06T00:44:35.829Z,16.83
2023-03-06T00:50:38.217Z,19.33
2023-03-06T00:56:40.421Z,17.92
2023-03-06T01:08:45.407Z,22.67
2023-03-06T01:14:47.602Z,23.52
2023-03-06T01:20:49.839Z,26.52
2023-03-06T01:26:52.098Z,14.50
2023-03-06T01:32:55.378Z,15.50
2023-03-06T01:38:57.424Z,16.38
2023-03-06T01:45:11.965Z,19.83
2023-03-06T01:51:15.287Z,23.58
2023-03-06T01:57:24.646Z,17.70
2023-03-06T02:03:28.684Z,21.80
2023-03-06T02:09:33.064Z,14.82
2023-03-06T02:15:35.522Z,21.10
2023-03-06T02:21:37.956Z,14.70
2023-03-06T02:27:42.756Z,15.48
2023-03-06T02:33:46.107Z,17.88
2023-03-06T02:39:53.169Z,16.90
2023-03-06T02:45:55.892Z,19.65
2023-03-06T02:58:01.009Z,17.48
2023-03-06T03:04:05.808Z,17.92
2023-03-06T03:10:09.493Z,21.83
2023-03-06T03:16:15.766Z,17.02
2023-03-06T03:22:18.927Z,16.35
2023-03-06T03:28:21.527Z,16.98
2023-03-06T03:34:23.897Z,14.75
2023-03-06T03:40:27.034Z,19.63
2023-03-06T03:46:29.542Z,17.98
2023-03-06T03:52:33.009Z,14.32
2023-03-06T03:58:35.478Z,17.30
2023-03-06T04:04:38.211Z,20.10
2023-03-06T04:10:41.254Z,19.30
2023-03-06T04:16:45.134Z,15.75
2023-03-06T04:22:47.970Z,18.48
2023-03-06T04:28:51.706Z,21.50
2023-03-06T04:34:55.228Z,19.80
2023-03-06T04:40:57.926Z,14.45
2023-03-06T04:47:00.045Z,19.17
2023-03-06T04:53:02.700Z,28.20
2023-03-06T04:59:05.465Z,25.77
2023-03-06T05:05:07.963Z,21.25
2023-03-06T05:11:10.277Z,19.98
2023-03-06T05:17:13.108Z,30.75
2023-03-06T05:23:15.202Z,21.17
2023-03-06T05:29:17.235Z,24.10
2023-03-06T05:35:21.846Z,15.47
2023-03-06T05:41:24.009Z,18.33
2023-03-06T05:47:26.134Z,21.40
2023-03-06T05:53:29.583Z,23.50
2023-03-06T05:59:33.370Z,17.73
2023-03-06T06:05:39.589Z,20.58
2023-03-06T06:11:41.757Z,26.40
2023-03-06T06:17:44.030Z,39.83
2023-03-06T06:23:46.512Z,25.95
2023-03-06T06:29:52.182Z,37.30
2023-03-06T06:35:54.528Z,46.08
2023-03-06T06:42:14.640Z,22.95
2023-03-06T06:48:19.018Z,22.83
2023-03-06T06:54:22.702Z,25.80
2023-03-06T07:00:24.928Z,29.05
2023-03-06T07:06:27.371Z,16.65
2023-03-06T07:12:32.603Z,16.40
2023-03-06T07:18:34.852Z,16.10
2023-03-06T07:24:37.390Z,22.10
2023-03-06T07:30:43.071Z,21.75
2023-03-06T07:36:45.562Z,29.85
2023-03-06T07:42:47.935Z,17.55
2023-03-06T07:48:53.308Z,24.75
2023-03-06T07:54:55.712Z,24.63
2023-03-06T08:00:57.841Z,34.03
2023-03-06T08:07:00.140Z,26.93
2023-03-06T08:13:02.621Z,29.73
2023-03-06T08:19:05.074Z,33.70
2023-03-06T08:25:08.302Z,20.98
2023-03-06T08:31:28.773Z,29.92
2023-03-06T08:37:31.084Z,24.33
2023-03-06T08:43:35.232Z,25.25
2023-03-06T08:49:40.011Z,50.70
2023-03-06T08:55:42.349Z,28.27
2023-03-06T09:01:45.479Z,23.35
2023-03-06T09:07:47.853Z,31.85
2023-03-06T09:13:50.815Z,32.05
2023-03-06T09:19:53.184Z,22.05
2023-03-06T09:25:57.179Z,29.15
2023-03-06T09:31:59.454Z,32.10
2023-03-06T09:38:02.420Z,29.17
2023-03-06T09:44:16.872Z,38.88
2023-03-06T09:50:34.133Z,33.90
2023-03-06T09:56:37.579Z,38.10
2023-03-06T10:02:48.363Z,34.42
2023-03-06T10:08:58.594Z,33.15
2023-03-06T10:15:19.830Z,33.95
2023-03-06T10:21:42.646Z,40.03
2023-03-06T10:28:01.537Z,38.67
2023-03-06T10:34:30.601Z,38.75
2023-03-06T10:40:43.524Z,38.75
2023-03-06T10:46:48.282Z,33.72
2023-03-06T10:53:05.919Z,48.22
2023-03-06T10:59:18.362Z,46.15
2023-03-06T11:05:21.356Z,33.83
2023-03-06T11:11:36.760Z,33.63
2023-03-06T11:18:22.593Z,30.90
2023-03-06T11:24:25.371Z,25.35
2023-03-06T11:30:42.666Z,25.02
2023-03-06T11:36:59.044Z,23.25
2023-03-06T11:43:16.543Z,21.05
2023-03-06T11:49:29.289Z,24.13
2023-03-06T11:55:56.185Z,26.83
2023-03-06T12:02:25.399Z,27.40
2023-03-06T12:08:36.602Z,22.65
2023-03-06T12:14:53.972Z,26.33
2023-03-06T12:21:15.220Z,28.02
2023-03-06T12:27:41.314Z,24.05
2023-03-06T12:34:01.812Z,34.60
2023-03-06T12:40:28.579Z,27.15
2023-03-06T12:46:30.932Z,26.23
2023-03-06T12:52:35.104Z,24.90
2023-03-06T12:58:52.196Z,25.08
2023-03-06T13:04:57.032Z,25.02
2023-03-06T13:11:24.146Z,26.13
2023-03-06T13:17:39.240Z,29.08
2023-03-06T13:23:51.423Z,30.85
2023-03-06T13:30:36.801Z,28.92
2023-03-06T13:36:39.897Z,27.40
2023-03-06T13:42:45.150Z,32.42
2023-03-06T13:49:05.097Z,48.10
2023-03-06T13:55:49.523Z,50.67
2023-03-06T14:08:14.173Z,31.02
2023-03-06T14:14:17.130Z,31.25
2023-03-06T14:20:21.107Z,24.48
2023-03-06T14:26:26.053Z,26.92
2023-03-06T14:32:28.697Z,33.55
2023-03-06T14:38:36.195Z,40.67
2023-03-06T14:44:38.601Z,31.73
2023-03-06T14:50:42.077Z,38.85
2023-03-06T14:56:51.673Z,27.88
2023-03-06T15:02:56.200Z,31.80
2023-03-06T15:09:07.192Z,25.38
2023-03-06T15:15:11.066Z,29.10
2023-03-06T15:21:21.747Z,28.70
2023-03-06T15:27:30.540Z,36.35
2023-03-06T15:33:32.809Z,28.92
2023-03-06T15:39:40.589Z,31.02
2023-03-06T15:45:42.854Z,26.25
2023-03-06T15:51:45.142Z,35.40
2023-03-06T15:58:00.259Z,26.63
2023-03-06T16:04:02.699Z,27.45
2023-03-06T16:10:05.297Z,22.98
2023-03-06T16:16:07.735Z,30.60
2023-03-06T16:22:10.272Z,35.90
2023-03-06T16:28:17.355Z,35.63
2023-03-06T16:34:20.103Z,33.22
2023-03-06T16:46:27.062Z,29.08
2023-03-06T16:52:41.974Z,36.13
2023-03-06T16:58:44.456Z,34.67
2023-03-06T17:04:46.580Z,40.78
2023-03-06T17:10:50.257Z,41.97
2023-03-06T17:16:54.404Z,61.85
2023-03-06T17:22:56.862Z,48.85
2023-03-06T17:28:59.166Z,48.10
2023-03-06T17:35:01.674Z,58.25
2023-03-06T17:41:05.668Z,61.05
2023-03-06T17:47:07.789Z,74.03
2023-03-06T17:53:09.928Z,69.97
2023-03-06T17:59:12.526Z,58.72
2023-03-06T18:11:17.452Z,62.05
2023-03-06T18:17:19.557Z,65.70
2023-03-06T18:23:21.952Z,76.20
2023-03-06T18:35:27.299Z,103.65
2023-03-06T18:41:30.779Z,278.00
2023-03-06T18:47:34.015Z,222.75
2023-03-06T18:53:37.020Z,90.35
2023-03-06T18:59:39.144Z,69.68
2023-03-06T19:05:42.948Z,67.35
2023-03-06T19:11:47.169Z,68.45
2023-03-06T19:17:50.166Z,65.97
2023-03-06T19:23:52.602Z,58.63
2023-03-06T19:29:54.901Z,53.45
2023-03-06T19:35:57.429Z,40.55
2023-03-06T19:42:00.065Z,75.80
2023-03-06T19:48:03.508Z,59.67
2023-03-06T19:54:05.748Z,49.03
2023-03-06T20:00:09.085Z,65.35
2023-03-06T20:06:17.666Z,60.28
2023-03-06T20:12:20.967Z,51.47
2023-03-06T20:18:23.475Z,58.97
2023-03-06T20:24:26.496Z,74.07
2023-03-06T20:30:37.526Z,66.00
2023-03-06T20:36:40.842Z,72.97
2023-03-06T20:42:43.171Z,69.03
2023-03-06T20:54:50.271Z,65.15
2023-03-06T21:06:55.580Z,62.80
2023-03-06T21:12:57.869Z,63.22
2023-03-06T21:19:01.103Z,58.22
2023-03-06T21:25:03.309Z,60.55
2023-03-06T21:31:08.866Z,55.73
2023-03-06T21:37:11.403Z,53.60
2023-03-06T21:43:13.868Z,61.72
2023-03-06T21:49:16.032Z,54.17
2023-03-06T21:55:18.491Z,58.30
2023-03-06T22:01:23.976Z,73.80
2023-03-06T22:07:26.526Z,65.00
2023-03-06T22:13:29.097Z,75.90
2023-03-06T22:19:31.315Z,104.60
2023-03-06T22:25:34.994Z,62.40
2023-03-06T22:31:39.278Z,79.35
2023-03-06T22:37:42.832Z,48.33
2023-03-06T22:43:45.112Z,69.38
2023-03-06T22:49:47.280Z,43.65
2023-03-06T22:55:49.343Z,58.70
2023-03-06T23:01:51.575Z,50.10
2023-03-06T23:07:53.997Z,56.70
2023-03-06T23:13:57.413Z,48.00
2023-03-06T23:20:18.584Z,43.92
2023-03-06T23:26:41.187Z,62.90
2023-03-06T23:32:45.735Z,52.40
2023-03-06T23:38:48.757Z,52.78
2023-03-06T23:50:54.024Z,57.20
2023-03-06T23:56:56.561Z,53.90
